Time;durP1;ratioP1;P1;durP2;ratioP2;P2;SDS_P1;SDS_P2;PMS_P1;PMS_P2;Temp;Humidity;BMP_temperature;BMP_pressure;BME280_temperature;BME280_humidity;BME280_pressure;Samples;Min_cycle;Max_cycle;Signal;HPM_P1;HPM_P2
2021/11/12 00:03:08;;;;;;;9.02;5.80;;;17.60;99.90;;;;;;5094665;28;20034;-67
2021/11/12 00:13:46;;;;;;;8.82;6.13;;;17.60;99.90;;;;;;5094443;28;20058;-67
2021/11/12 00:16:12;;;;;;;12.60;6.50;;;17.60;99.90;;;;;;5094273;28;20024;-67
2021/11/12 00:18:39;;;;;;;9.57;5.82;;;17.60;99.90;;;;;;5094162;28;20024;-67
2021/11/12 00:21:06;;;;;;;11.45;6.38;;;17.60;99.90;;;;;;5094099;28;20514;-67
2021/11/12 00:23:34;;;;;;;10.60;6.45;;;17.60;99.90;;;;;;5094302;28;20384;-67
2021/11/12 00:26:01;;;;;;;11.77;6.25;;;17.60;99.90;;;;;;5094143;28;20032;-67
2021/11/12 00:28:32;;;;;;;9.00;6.10;;;17.60;99.90;;;;;;5094092;28;20099;-68
2021/11/12 00:41:36;;;;;;;9.48;5.90;;;17.50;99.90;;;;;;5094165;28;20529;-67
2021/11/12 00:44:20;;;;;;;8.65;5.97;;;17.50;99.90;;;;;;5093722;28;20415;-67
2021/11/12 00:47:22;;;;;;;9.40;6.35;;;17.50;99.90;;;;;;5093872;28;20016;-67
2021/11/12 00:49:41;;;;;;;10.07;5.85;;;17.50;99.90;;;;;;5091583;28;20028;-67
2021/11/12 00:52:14;;;;;;;8.80;6.22;;;17.50;99.90;;;;;;5093266;28;20028;-67
2021/11/12 00:54:40;;;;;;;9.30;6.20;;;17.50;99.90;;;;;;5092548;28;20364;-67
2021/11/12 00:57:07;;;;;;;8.90;6.20;;;17.40;99.90;;;;;;5093273;28;20099;-67
2021/11/12 00:59:33;;;;;;;8.65;6.00;;;17.40;99.90;;;;;;5093424;28;20487;-67
2021/11/12 01:01:59;;;;;;;9.95;5.85;;;17.40;99.90;;;;;;5093346;28;20032;-67
2021/11/12 01:04:25;;;;;;;7.47;5.30;;;17.40;99.90;;;;;;5093577;28;20039;-67
2021/11/12 01:06:51;;;;;;;7.88;5.50;;;17.40;99.90;;;;;;5093651;28;20099;-66
2021/11/12 01:09:21;;;;;;;9.52;5.97;;;17.40;99.90;;;;;;5093341;28;20031;-67
2021/11/12 01:11:49;;;;;;;9.70;6.35;;;17.40;99.90;;;;;;5093377;28;20032;-67
2021/11/12 01:14:21;;;;;;;9.50;6.13;;;17.40;99.90;;;;;;5093198;28;20031;-67
2021/11/12 01:16:48;;;;;;;8.45;5.97;;;17.40;99.90;;;;;;5093254;28;20040;-67
2021/11/12 01:19:14;;;;;;;9.80;6.13;;;17.40;99.90;;;;;;5092941;28;20036;-67
2021/11/12 01:21:42;;;;;;;9.55;5.85;;;17.40;99.90;;;;;;5093116;28;20395;-67
2021/11/12 01:24:08;;;;;;;8.60;5.93;;;17.40;99.90;;;;;;5092653;28;20541;-67
2021/11/12 01:26:35;;;;;;;9.77;6.35;;;17.30;99.90;;;;;;5092859;28;20039;-67
2021/11/12 01:29:00;;;;;;;7.93;5.82;;;17.30;99.90;;;;;;5092747;28;20020;-67
2021/11/12 01:31:27;;;;;;;10.20;6.20;;;17.30;99.90;;;;;;5092886;28;20574;-67
2021/11/12 01:33:54;;;;;;;7.43;5.38;;;17.30;99.90;;;;;;5093064;28;20039;-67
2021/11/12 01:36:29;;;;;;;10.13;6.25;;;17.30;99.90;;;;;;5091905;28;20031;-66
2021/11/12 01:38:58;;;;;;;7.10;5.43;;;17.30;99.90;;;;;;5092502;28;20032;-67
2021/11/12 01:41:25;;;;;;;8.02;6.43;;;17.30;99.90;;;;;;5092719;28;20023;-67
2021/11/12 01:43:56;;;;;;;8.77;6.38;;;17.30;99.90;;;;;;5092732;28;20019;-67
2021/11/12 01:47:31;;;;;;;8.93;5.78;;;17.30;99.90;;;;;;5092094;28;20070;-67
2021/11/12 01:49:23;;;;;;;8.30;5.40;;;17.20;99.90;;;;;;5083129;28;20032;-67
2021/11/12 01:51:55;;;;;;;7.32;5.32;;;17.30;99.90;;;;;;5093121;28;20431;-67
2021/11/12 01:55:07;;;;;;;6.70;5.40;;;17.20;99.90;;;;;;5092716;28;20047;-67
2021/11/12 01:59:52;;;;;;;7.43;5.65;;;17.20;99.90;;;;;;5092736;28;20126;-67
2021/11/12 02:02:18;;;;;;;7.65;5.72;;;17.20;99.90;;;;;;5092523;28;20028;-67
2021/11/12 02:04:44;;;;;;;8.80;6.05;;;17.20;99.90;;;;;;5092270;28;20107;-67
2021/11/12 02:07:12;;;;;;;7.43;5.60;;;17.20;99.90;;;;;;5092001;28;20031;-67
2021/11/12 02:09:38;;;;;;;7.30;5.78;;;17.20;99.90;;;;;;5092422;28;20074;-67
2021/11/12 02:12:16;;;;;;;8.63;5.95;;;17.20;99.90;;;;;;5091859;28;20106;-67
2021/11/12 02:14:43;;;;;;;10.05;6.53;;;17.20;99.90;;;;;;5091023;28;20467;-67
2021/11/12 02:17:35;;;;;;;7.10;5.65;;;17.10;99.90;;;;;;5091791;28;20032;-67
2021/11/12 02:20:23;;;;;;;7.90;5.88;;;17.10;99.90;;;;;;5091236;28;20054;-67
2021/11/12 02:22:47;;;;;;;7.63;5.47;;;17.10;99.90;;;;;;5091310;28;20032;-67
2021/11/12 02:25:15;;;;;;;8.00;5.40;;;17.10;99.90;;;;;;5091858;28;20043;-68
2021/11/12 02:30:29;;;;;;;6.60;5.57;;;17.10;99.90;;;;;;5091845;28;20084;-67
2021/11/12 02:33:06;;;;;;;7.13;5.82;;;17.10;99.90;;;;;;5090373;28;20396;-67
2021/11/12 02:35:34;;;;;;;7.45;5.35;;;17.10;99.90;;;;;;5091743;28;20060;-67
2021/11/12 02:38:03;;;;;;;7.10;5.40;;;17.10;99.90;;;;;;5091446;28;20554;-67
2021/11/12 02:40:31;;;;;;;7.30;5.30;;;17.10;99.90;;;;;;5091753;28;20032;-66
2021/11/12 02:42:57;;;;;;;6.72;5.10;;;17.00;99.90;;;;;;5091597;28;20062;-67
2021/11/12 02:45:24;;;;;;;7.25;5.30;;;17.00;99.90;;;;;;5091716;28;20032;-67
2021/11/12 02:47:50;;;;;;;9.65;5.72;;;17.00;99.90;;;;;;5092036;28;20052;-67
2021/11/12 02:50:18;;;;;;;6.00;4.75;;;17.00;99.90;;;;;;5091177;28;20035;-67
2021/11/12 02:52:46;;;;;;;7.10;5.28;;;17.00;99.90;;;;;;5091533;28;20020;-67
2021/11/12 02:55:12;;;;;;;7.57;5.47;;;17.00;99.90;;;;;;5091147;28;20107;-68
2021/11/12 02:57:38;;;;;;;6.95;5.15;;;17.00;99.90;;;;;;5091176;28;20103;-67
2021/11/12 03:00:10;;;;;;;6.72;5.03;;;17.00;99.90;;;;;;5090004;28;20070;-67
2021/11/12 03:02:36;;;;;;;7.40;5.40;;;17.00;99.90;;;;;;5091657;28;20021;-67
2021/11/12 03:05:02;;;;;;;6.95;4.78;;;17.00;99.90;;;;;;5091349;28;20349;-67
2021/11/12 03:07:28;;;;;;;6.80;4.97;;;16.90;99.90;;;;;;5091584;28;20571;-67
2021/11/12 03:09:54;;;;;;;6.35;4.90;;;16.90;99.90;;;;;;5091143;28;20095;-67
2021/11/12 03:12:22;;;;;;;6.80;5.13;;;16.90;99.90;;;;;;5091726;28;20028;-66
2021/11/12 03:14:50;;;;;;;6.88;4.93;;;16.90;99.90;;;;;;5091790;28;20020;-66
2021/11/12 03:17:16;;;;;;;6.70;5.25;;;16.90;99.90;;;;;;5091035;28;20032;-67
2021/11/12 03:19:43;;;;;;;7.03;4.97;;;16.90;99.90;;;;;;5089986;28;20045;-66
2021/11/12 03:22:12;;;;;;;6.47;4.78;;;16.90;99.90;;;;;;5091240;28;20035;-67
2021/11/12 03:24:45;;;;;;;7.53;4.93;;;16.90;99.90;;;;;;5090029;28;20032;-66
2021/11/12 04:05:11;;;;;;;5.53;4.28;;;16.80;99.90;;;;;;5090532;28;20035;-67
2021/11/12 04:40:34;;;;;;;5.20;4.30;;;16.60;99.90;;;;;;5070549;28;20032;-67
2021/11/12 05:10:41;;;;;;;;;;;16.60;99.90;;;;;;5094011;28;20038;-67
2021/11/12 05:51:46;;;;;;;6.72;3.95;;;16.70;99.90;;;;;;5092806;28;20035;-67
2021/11/12 05:56:56;;;;;;;;;;;16.70;99.90;;;;;;5092901;28;20031;-66
2021/11/12 05:59:23;;;;;;;4.55;3.25;;;16.80;99.90;;;;;;5092545;28;19916;-67
2021/11/12 06:01:50;;;;;;;4.97;3.47;;;16.80;99.90;;;;;;5092847;28;20030;-66
2021/11/12 06:04:16;;;;;;;5.57;3.53;;;16.70;99.90;;;;;;5091457;28;20032;-66
2021/11/12 06:06:42;;;;;;;4.35;3.15;;;16.70;99.90;;;;;;5092551;28;20020;-67
2021/11/12 06:09:08;;;;;;;6.15;3.90;;;16.80;99.90;;;;;;5092002;28;20042;-67
2021/11/12 06:11:35;;;;;;;6.05;3.58;;;16.80;99.90;;;;;;5091518;28;20398;-68
2021/11/12 06:14:01;;;;;;;5.13;3.38;;;16.80;99.90;;;;;;5091858;28;20047;-68
2021/11/12 06:16:27;;;;;;;5.18;3.35;;;16.90;99.90;;;;;;5092309;28;20028;-66
2021/11/12 06:18:54;;;;;;;6.15;4.00;;;16.90;99.90;;;;;;5091673;28;20078;-67
2021/11/12 06:21:23;;;;;;;5.35;3.50;;;16.90;99.90;;;;;;5092521;28;20024;-67
2021/11/12 06:23:50;;;;;;;8.88;3.63;;;16.90;99.90;;;;;;5092338;28;20035;-68
2021/11/12 06:26:15;;;;;;;10.65;3.33;;;16.90;99.90;;;;;;5091900;28;20028;-76
2021/11/12 06:28:42;;;;;;;5.97;3.60;;;16.90;99.90;;;;;;5091970;28;20020;-68
2021/11/12 06:31:07;;;;;;;5.90;3.33;;;16.90;99.90;;;;;;5091298;28;20028;-67
2021/11/12 06:33:33;;;;;;;6.57;3.70;;;16.90;99.90;;;;;;5091998;28;20027;-66
2021/11/12 06:36:00;;;;;;;6.15;3.08;;;16.90;99.90;;;;;;5091674;28;20028;-68
2021/11/12 06:38:29;;;;;;;5.03;3.28;;;16.90;99.90;;;;;;5091914;28;20059;-67
2021/11/12 06:40:56;;;;;;;5.00;3.10;;;17.00;99.90;;;;;;5091517;28;20032;-67
2021/11/12 06:51:18;;;;;;;6.22;2.95;;;17.00;99.90;;;;;;5092000;28;20055;-67
2021/11/12 06:53:44;;;;;;;8.23;5.45;;;17.00;99.90;;;;;;5091706;28;20020;-68
2021/11/12 06:56:10;;;;;;;11.75;7.47;;;17.00;99.90;;;;;;5091381;28;20526;-69
2021/11/12 06:58:38;;;;;;;10.02;7.03;;;16.90;99.90;;;;;;5091393;28;20039;-68
2021/11/12 07:01:04;;;;;;;11.88;8.02;;;16.90;99.90;;;;;;5091416;28;20028;-68
2021/11/12 07:03:30;;;;;;;12.00;7.30;;;16.90;99.80;;;;;;5091607;28;20020;-69
2021/11/12 07:05:56;;;;;;;8.43;5.15;;;16.80;99.50;;;;;;5091374;28;20032;-69
2021/11/12 07:08:22;;;;;;;8.32;4.70;;;16.90;99.90;;;;;;5091612;28;20537;-68
2021/11/12 07:10:52;;;;;;;7.03;4.15;;;16.90;99.90;;;;;;5091741;28;20025;-71
2021/11/12 07:13:17;;;;;;;6.32;4.05;;;17.00;99.90;;;;;;5091255;28;20056;-73
2021/11/12 07:15:43;;;;;;;6.53;3.92;;;17.00;99.90;;;;;;5090106;28;20490;-69
2021/11/12 07:18:09;;;;;;;5.35;3.40;;;17.00;99.90;;;;;;5091191;28;20369;-69
2021/11/12 07:20:35;;;;;;;6.25;3.45;;;17.00;99.90;;;;;;5091317;28;20054;-77
2021/11/12 07:23:00;;;;;;;7.80;3.75;;;17.00;99.90;;;;;;5090789;28;20021;-72
2021/11/12 07:25:26;;;;;;;5.35;3.60;;;17.10;99.90;;;;;;5091390;28;20028;-71
2021/11/12 07:27:52;;;;;;;5.88;3.25;;;17.10;99.90;;;;;;5091707;28;20457;-71
2021/11/12 07:30:19;;;;;;;6.28;3.33;;;17.10;99.90;;;;;;5091187;28;20107;-72
2021/11/12 07:32:47;;;;;;;5.35;3.17;;;17.10;99.90;;;;;;5091450;28;20032;-72
2021/11/12 07:35:19;;;;;;;5.88;3.50;;;17.10;99.90;;;;;;5089906;28;20858;-71
2021/11/12 07:37:45;;;;;;;5.63;3.30;;;17.10;99.90;;;;;;5091211;28;20448;-72
2021/11/12 07:40:20;;;;;;;3.95;3.05;;;17.20;99.90;;;;;;5090596;28;20043;-72
2021/11/12 07:47:45;;;;;;;4.40;3.15;;;17.20;99.90;;;;;;5094704;28;20165;-72
2021/11/12 07:50:12;;;;;;;4.95;3.22;;;17.20;99.90;;;;;;5094177;28;20028;-73
2021/11/12 07:52:38;;;;;;;7.07;3.38;;;17.20;99.90;;;;;;5093490;28;20031;-72
2021/11/12 07:55:07;;;;;;;7.35;3.15;;;17.20;99.90;;;;;;5094379;28;20032;-71
2021/11/12 07:57:34;;;;;;;5.57;3.00;;;17.30;99.90;;;;;;5094910;28;20035;-71
2021/11/12 07:59:59;;;;;;;5.30;2.80;;;17.30;99.90;;;;;;5094396;28;20066;-73
2021/11/12 08:02:25;;;;;;;5.05;2.97;;;17.30;99.90;;;;;;5094485;28;20024;-69
2021/11/12 08:04:58;;;;;;;4.38;3.20;;;17.30;99.90;;;;;;5095036;28;20024;-69
2021/11/12 08:07:25;;;;;;;4.63;3.20;;;17.30;99.90;;;;;;5094306;28;20020;-69
2021/11/12 08:09:54;;;;;;;4.82;3.20;;;17.30;99.90;;;;;;5095032;28;20035;-68
2021/11/12 08:20:56;;;;;;;5.60;4.00;;;17.40;99.90;;;;;;5073749;28;20559;-68
2021/11/12 08:23:30;;;;;;;6.15;3.88;;;17.40;99.90;;;;;;5089854;28;20063;-70
2021/11/12 08:29:21;;;;;;;5.78;3.78;;;17.40;99.90;;;;;;5071729;28;19908;-69
2021/11/12 08:42:19;;;;;;;6.45;4.05;;;17.50;99.90;;;;;;5092175;28;20107;-69
2021/11/12 08:44:51;;;;;;;7.35;4.28;;;17.60;99.90;;;;;;5092626;28;20109;-72
2021/11/12 08:47:20;;;;;;;7.82;4.57;;;17.60;99.90;;;;;;5092400;28;20036;-72
2021/11/12 08:49:46;;;;;;;5.78;4.20;;;17.60;99.90;;;;;;5090097;28;20028;-73
2021/11/12 08:52:16;;;;;;;8.02;4.90;;;17.60;99.90;;;;;;5092328;28;20811;-72
2021/11/12 08:54:44;;;;;;;5.72;4.22;;;17.60;99.90;;;;;;5091901;28;20490;-69
2021/11/12 08:57:11;;;;;;;5.97;4.25;;;17.60;99.90;;;;;;5092061;28;20016;-75
2021/11/12 08:59:45;;;;;;;7.32;4.55;;;17.70;99.90;;;;;;5090829;28;20115;-72
2021/11/12 09:02:15;;;;;;;6.40;4.25;;;17.70;99.90;;;;;;5090076;28;20020;-70
2021/11/12 09:04:42;;;;;;;6.20;4.00;;;17.70;99.90;;;;;;5092017;28;20032;-69
2021/11/12 09:07:09;;;;;;;6.07;4.40;;;17.70;99.90;;;;;;5091934;28;20446;-70
2021/11/12 09:09:36;;;;;;;6.10;4.25;;;17.70;99.90;;;;;;5091979;28;20020;-70
2021/11/12 09:12:04;;;;;;;8.00;4.50;;;17.70;99.90;;;;;;5091983;28;20012;-71
2021/11/12 09:14:30;;;;;;;7.45;4.30;;;17.70;99.90;;;;;;5091751;28;20028;-73
2021/11/12 09:17:03;;;;;;;5.82;4.25;;;17.70;99.90;;;;;;5091661;28;20437;-69
2021/11/12 09:19:29;;;;;;;5.65;4.43;;;17.70;99.90;;;;;;5089759;28;20040;-73
2021/11/12 09:21:55;;;;;;;7.75;4.28;;;17.70;99.90;;;;;;5091661;28;20031;-73
2021/11/12 09:24:20;;;;;;;7.35;4.45;;;17.70;99.90;;;;;;5093256;28;20032;-73
2021/11/12 09:26:46;;;;;;;6.80;4.68;;;17.70;99.90;;;;;;5093020;28;20016;-71
2021/11/12 09:29:12;;;;;;;6.35;4.57;;;17.70;99.90;;;;;;5092649;28;20039;-77
2021/11/12 09:31:40;;;;;;;8.98;4.72;;;17.70;99.90;;;;;;5091450;28;20102;-77
2021/11/12 09:34:07;;;;;;;6.28;4.63;;;17.80;99.90;;;;;;5090014;28;20024;-73
2021/11/12 09:36:33;;;;;;;7.20;4.13;;;17.80;99.90;;;;;;5092893;28;20035;-74
2021/11/12 09:38:59;;;;;;;7.47;4.90;;;17.80;99.90;;;;;;5091514;28;20036;-74
2021/11/12 09:41:27;;;;;;;6.38;4.55;;;17.80;99.90;;;;;;5092740;28;20040;-74
2021/11/12 09:43:52;;;;;;;7.35;4.53;;;17.80;99.90;;;;;;5093146;28;20035;-73
2021/11/12 09:46:18;;;;;;;9.77;4.40;;;17.80;99.90;;;;;;5093068;28;20020;-75
2021/11/12 09:48:44;;;;;;;8.35;4.90;;;17.80;99.90;;;;;;5092750;28;20383;-76
2021/11/12 09:51:11;;;;;;;6.20;4.38;;;17.80;99.90;;;;;;5092500;28;20026;-70
2021/11/12 09:53:38;;;;;;;7.15;4.60;;;17.80;99.90;;;;;;5092585;28;20058;-71
2021/11/12 09:56:07;;;;;;;6.90;4.60;;;17.80;99.90;;;;;;5092403;28;20036;-72
2021/11/12 09:58:33;;;;;;;7.47;4.60;;;17.80;99.90;;;;;;5092357;28;20531;-69
2021/11/12 10:01:00;;;;;;;5.90;4.30;;;17.80;99.90;;;;;;5092191;28;20040;-69
2021/11/12 10:03:44;;;;;;;6.28;4.35;;;17.80;99.90;;;;;;5092395;28;20349;-69
2021/11/12 10:06:25;;;;;;;5.80;4.65;;;17.80;99.90;;;;;;5091623;28;20097;-74
2021/11/12 10:08:52;;;;;;;6.10;4.55;;;17.90;99.90;;;;;;5092572;28;20024;-69
2021/11/12 10:11:44;;;;;;;5.80;4.40;;;17.80;99.90;;;;;;5092230;28;20090;-72
2021/11/12 10:14:12;;;;;;;7.63;4.60;;;17.90;99.90;;;;;;5092020;28;20066;-72
2021/11/12 10:16:42;;;;;;;6.63;4.32;;;17.90;99.90;;;;;;5092418;28;20116;-70
2021/11/12 10:19:20;;;;;;;7.03;4.88;;;17.90;99.90;;;;;;5091875;28;20061;-70
2021/11/12 10:22:02;;;;;;;6.55;4.28;;;17.90;99.90;;;;;;5092263;28;20056;-70
2021/11/12 10:24:34;;;;;;;5.65;4.30;;;17.90;99.90;;;;;;5092151;28;20016;-69
2021/11/12 10:27:01;;;;;;;6.57;4.07;;;17.90;99.90;;;;;;5091349;28;20061;-71
2021/11/12 10:29:28;;;;;;;7.40;4.57;;;18.00;99.90;;;;;;5090416;28;20050;-73
2021/11/12 10:32:19;;;;;;;5.35;4.47;;;18.00;99.90;;;;;;5091468;28;20020;-73
2021/11/12 10:34:47;;;;;;;5.95;4.30;;;18.00;99.90;;;;;;5089345;28;20122;-73
2021/11/12 10:37:16;;;;;;;13.32;4.72;;;18.00;99.90;;;;;;5091930;28;20473;-71
2021/11/12 10:39:41;;;;;;;5.45;3.97;;;18.00;99.90;;;;;;5091501;28;20036;-71
2021/11/12 10:42:21;;;;;;;5.93;4.22;;;18.00;99.90;;;;;;5091751;28;20078;-75
2021/11/12 10:44:49;;;;;;;4.80;3.72;;;18.00;99.90;;;;;;5091828;28;20051;-73
2021/11/12 10:47:20;;;;;;;6.82;4.07;;;18.00;99.90;;;;;;5091313;28;20027;-73
2021/11/12 10:50:09;;;;;;;6.03;3.90;;;18.10;99.90;;;;;;5091725;28;20024;-72
2021/11/12 10:52:37;;;;;;;5.45;3.90;;;18.10;99.90;;;;;;5091861;28;20024;-79
2021/11/12 10:55:23;;;;;;;6.00;3.90;;;18.10;99.90;;;;;;5091385;28;20185;-74
2021/11/12 10:57:57;;;;;;;6.50;4.00;;;18.10;99.90;;;;;;5091659;28;20077;-70
2021/11/12 11:00:27;;;;;;;5.57;3.88;;;18.10;99.90;;;;;;5091704;28;20111;-72
2021/11/12 11:03:02;;;;;;;5.55;4.10;;;18.10;99.90;;;;;;5091628;28;20119;-74
2021/11/12 11:05:42;;;;;;;5.20;3.83;;;18.10;99.90;;;;;;5091488;28;20024;-74
2021/11/12 11:08:15;;;;;;;5.55;3.95;;;18.10;99.90;;;;;;5091125;28;20111;-73
2021/11/12 11:10:42;;;;;;;;;;;18.20;99.90;;;;;;5090638;28;20020;-72
2021/11/12 11:13:12;;;;;;;5.10;3.58;;;18.20;99.90;;;;;;5091188;28;19910;-71
2021/11/12 11:15:46;;;;;;;4.68;3.13;;;18.20;99.90;;;;;;5091362;28;20020;-72
2021/11/12 11:18:27;;;;;;;5.53;3.75;;;18.30;99.90;;;;;;5092893;28;20024;-72
2021/11/12 11:24:06;;;;;;;5.40;3.45;;;18.30;99.90;;;;;;5095309;28;20428;-69
2021/11/12 11:26:37;;;;;;;5.75;3.45;;;18.30;99.90;;;;;;5095353;28;20020;-69
2021/11/12 11:29:05;;;;;;;5.82;3.42;;;18.40;99.90;;;;;;5095351;28;20024;-69
2021/11/12 11:31:32;;;;;;;5.40;3.40;;;18.40;99.90;;;;;;5095560;28;20020;-69
2021/11/12 11:33:59;;;;;;;4.78;3.60;;;18.40;99.90;;;;;;5095149;28;20103;-69
2021/11/12 11:36:28;;;;;;;5.00;3.22;;;18.40;99.90;;;;;;5094374;28;20051;-69
2021/11/12 11:38:56;;;;;;;5.05;3.53;;;18.40;99.90;;;;;;5094843;28;20655;-69
2021/11/12 11:41:24;;;;;;;6.45;3.28;;;18.40;99.90;;;;;;5095661;28;20036;-69
2021/11/12 11:43:50;;;;;;;4.50;3.28;;;18.40;99.90;;;;;;5095387;28;20032;-70
2021/11/12 11:46:22;;;;;;;4.88;3.13;;;18.50;99.90;;;;;;5095115;28;20410;-69
2021/11/12 11:48:48;;;;;;;4.82;2.97;;;18.40;99.90;;;;;;5095311;28;20016;-70
2021/11/12 11:51:31;;;;;;;4.15;3.33;;;18.40;99.90;;;;;;5094104;28;20491;-70
2021/11/12 11:54:15;;;;;;;4.72;3.13;;;18.50;99.90;;;;;;5094728;28;20035;-70
2021/11/12 11:56:43;;;;;;;4.55;3.22;;;18.50;99.90;;;;;;5095095;28;20027;-70
2021/11/12 11:59:17;;;;;;;5.55;3.05;;;18.50;99.80;;;;;;5094515;28;20038;-70
2021/11/12 12:01:47;;;;;;;3.72;2.65;;;18.50;99.90;;;;;;5095204;28;20063;-71
2021/11/12 12:04:15;;;;;;;3.90;2.78;;;18.50;99.80;;;;;;5094697;28;20264;-70
2021/11/12 12:06:43;;;;;;;4.30;2.78;;;18.50;99.70;;;;;;5094700;28;20043;-71
2021/11/12 12:09:13;;;;;;;4.18;2.85;;;18.50;99.80;;;;;;5094402;28;20118;-70
2021/11/12 12:11:52;;;;;;;4.15;3.30;;;18.50;99.50;;;;;;5094639;28;20039;-71
2021/11/12 12:14:24;;;;;;;4.00;2.90;;;18.50;99.50;;;;;;5095114;28;20421;-71
2021/11/12 12:16:59;;;;;;;3.85;2.97;;;18.60;99.20;;;;;;5095057;28;20103;-70
2021/11/12 12:20:04;;;;;;;4.95;3.30;;;18.60;99.00;;;;;;5094426;28;20092;-70
2021/11/12 13:26:03;;;;;;;3.33;2.42;;;19.00;98.30;;;;;;5093555;28;20038;-70
2021/11/12 13:28:36;;;;;;;3.45;2.42;;;19.00;98.30;;;;;;5093402;28;20058;-69
2021/11/12 13:31:01;;;;;;;2.40;2.10;;;19.00;98.20;;;;;;5092993;28;20468;-68
2021/11/12 13:33:47;;;;;;;3.42;2.33;;;19.00;98.20;;;;;;5093025;28;20036;-70
2021/11/12 13:36:30;;;;;;;4.18;2.50;;;19.00;98.00;;;;;;5092852;28;20065;-70
2021/11/12 13:39:17;;;;;;;3.78;2.70;;;19.00;98.00;;;;;;5092763;28;20464;-70
2021/11/12 13:41:59;;;;;;;2.60;2.30;;;19.00;98.00;;;;;;5091757;28;20115;-69
2021/11/12 13:44:32;;;;;;;3.08;2.33;;;19.10;97.90;;;;;;5092420;28;20027;-70
2021/11/12 13:47:02;;;;;;;2.65;2.15;;;19.10;97.90;;;;;;5082202;28;20024;-69
2021/11/12 13:49:45;;;;;;;2.85;2.25;;;19.10;97.80;;;;;;5092858;28;20016;-70
2021/11/12 13:52:14;;;;;;;3.38;2.30;;;19.10;97.80;;;;;;5091341;28;20051;-70
2021/11/12 13:54:48;;;;;;;3.03;2.30;;;19.10;97.70;;;;;;5091575;28;20028;-69
2021/11/12 13:57:20;;;;;;;2.65;2.35;;;19.10;97.70;;;;;;5088971;28;20430;-70
2021/11/12 14:00:01;;;;;;;3.45;2.63;;;19.10;97.70;;;;;;5090743;28;20048;-69
2021/11/12 14:02:52;;;;;;;3.65;2.58;;;19.10;97.60;;;;;;5091009;28;20495;-69
2021/11/12 14:05:18;;;;;;;3.75;2.80;;;19.20;97.60;;;;;;5089421;28;20016;-69
2021/11/12 14:07:45;;;;;;;3.45;2.70;;;19.20;97.60;;;;;;5091572;28;20020;-70
2021/11/12 14:10:13;;;;;;;3.45;2.40;;;19.20;97.60;;;;;;5092141;28;20086;-70
2021/11/12 14:12:58;;;;;;;2.95;2.45;;;19.20;97.50;;;;;;5092219;28;20032;-70
2021/11/12 14:15:42;;;;;;;2.80;2.47;;;19.20;97.50;;;;;;5092109;28;20111;-70
2021/11/12 14:18:22;;;;;;;3.35;2.40;;;19.20;97.50;;;;;;5090740;28;20049;-70
2021/11/12 14:21:06;;;;;;;5.13;2.70;;;19.20;97.40;;;;;;5089954;28;20166;-70
2021/11/12 14:23:49;;;;;;;3.13;2.60;;;19.20;97.40;;;;;;5089574;28;20020;-70
2021/11/12 14:26:26;;;;;;;2.90;2.50;;;19.30;97.40;;;;;;5089624;28;20526;-69
2021/11/12 14:29:03;;;;;;;5.32;2.55;;;19.30;97.30;;;;;;5088309;28;20020;-68
2021/11/12 14:34:40;;;;;;;3.30;2.70;;;19.30;97.70;;;;;;5089313;28;20528;-68
2021/11/12 14:37:27;;;;;;;3.85;2.58;;;19.30;97.40;;;;;;5088141;28;20024;-69
2021/11/12 14:40:10;;;;;;;3.83;2.70;;;19.30;97.40;;;;;;5090321;28;20035;-68
2021/11/12 14:42:50;;;;;;;4.82;2.55;;;19.40;97.50;;;;;;5091956;28;20020;-67
2021/11/12 14:45:38;;;;;;;3.72;2.60;;;19.40;97.60;;;;;;5091844;28;20035;-67
2021/11/12 14:48:35;;;;;;;4.05;2.60;;;19.40;97.60;;;;;;5091762;28;20024;-67
2021/11/12 14:51:17;;;;;;;7.55;2.63;;;19.40;97.60;;;;;;5091776;28;20031;-67
2021/11/12 14:56:19;;;;;;;4.00;2.67;;;19.40;97.50;;;;;;5091702;28;20492;-67
2021/11/12 14:58:51;;;;;;;6.25;2.95;;;19.40;97.50;;;;;;5091461;28;20494;-67
2021/11/12 15:01:22;;;;;;;4.15;2.83;;;19.40;97.60;;;;;;5091503;28;20065;-67
2021/11/12 15:03:50;;;;;;;4.32;2.70;;;19.40;97.40;;;;;;5091707;28;20103;-67
2021/11/12 15:06:19;;;;;;;3.33;2.60;;;19.50;97.50;;;;;;5091384;28;20020;-67
2021/11/12 15:11:15;;;;;;;4.18;2.90;;;19.50;97.40;;;;;;5091298;28;20036;-68
2021/11/12 15:13:42;;;;;;;4.65;2.90;;;19.50;97.30;;;;;;5091215;28;20419;-68
2021/11/12 15:16:13;;;;;;;3.33;2.80;;;19.50;97.50;;;;;;5091234;28;20070;-68
2021/11/12 15:18:39;;;;;;;3.13;2.50;;;19.50;97.40;;;;;;5091479;28;20032;-69
2021/11/12 15:21:11;;;;;;;3.72;2.97;;;19.50;97.50;;;;;;5091209;28;20035;-68
2021/11/12 15:23:51;;;;;;;3.35;2.75;;;19.50;97.50;;;;;;5091582;28;20020;-68
2021/11/12 15:29:21;;;;;;;;;;;19.50;97.30;;;;;;5092000;28;20031;-67
2021/11/12 15:34:18;;;;;;;3.78;3.00;;;19.50;97.30;;;;;;5091842;28;20506;-68
2021/11/12 15:36:56;;;;;;;3.05;2.60;;;19.50;97.10;;;;;;5091325;28;20103;-68
2021/11/12 15:44:54;;;;;;;4.18;2.90;;;19.40;97.60;;;;;;5091768;28;20035;-69
2021/11/12 15:49:45;;;;;;;4.78;3.10;;;19.40;97.80;;;;;;5091470;28;20020;-68
2021/11/12 15:52:27;;;;;;;3.60;3.13;;;19.40;97.50;;;;;;5091281;28;20024;-69
2021/11/12 15:55:24;;;;;;;3.58;2.90;;;19.40;97.40;;;;;;5090798;28;20103;-68
2021/11/12 15:57:59;;;;;;;3.78;2.90;;;19.30;97.80;;;;;;5090904;28;20032;-68
2021/11/12 16:00:36;;;;;;;3.50;2.30;;;19.30;97.50;;;;;;5091127;28;20035;-68
2021/11/12 16:03:54;;;;;;;3.90;2.80;;;19.30;97.50;;;;;;5091158;28;20024;-68
2021/11/12 16:08:54;;;;;;;3.63;3.00;;;19.30;97.40;;;;;;5094023;28;20032;-68
2021/11/12 16:14:10;;;;;;;4.65;2.85;;;19.20;97.70;;;;;;5094372;28;20031;-68
2021/11/12 16:27:33;;;;;;;4.78;2.65;;;19.10;97.90;;;;;;5085458;28;20038;-71
2021/11/12 16:30:04;;;;;;;4.00;3.10;;;19.10;98.30;;;;;;5093322;28;20035;-71
2021/11/12 16:32:38;;;;;;;4.07;3.00;;;19.10;98.10;;;;;;5094730;28;20085;-71
2021/11/12 16:35:06;;;;;;;4.30;3.15;;;19.10;98.00;;;;;;5093661;28;20086;-70
2021/11/12 16:37:33;;;;;;;4.50;3.10;;;19.10;97.90;;;;;;5074130;28;20036;-71
2021/11/12 16:47:43;;;;;;;3.65;2.40;;;19.00;98.00;;;;;;5073942;28;20107;-71
2021/11/12 16:58:16;;;;;;;3.50;2.92;;;18.80;97.90;;;;;;5093674;28;20081;-72
2021/11/12 17:06:00;;;;;;;6.70;2.97;;;18.80;97.80;;;;;;5094338;28;20024;-69
2021/11/12 17:19:51;;;;;;;3.08;2.42;;;18.70;98.00;;;;;;5092298;28;20020;-72
2021/11/12 17:46:16;;;;;;;4.38;2.72;;;18.50;98.20;;;;;;5088633;28;20035;-71
2021/11/12 18:02:25;;;;;;;3.30;2.53;;;18.30;98.30;;;;;;5089884;28;20046;-70
2021/11/12 18:08:00;;;;;;;3.28;2.50;;;18.30;98.40;;;;;;5091825;28;20021;-70
2021/11/12 21:46:45;;;;;;;5.28;3.53;;;17.40;99.90;;;;;;5091632;28;20388;-69
2021/11/12 21:49:13;;;;;;;4.93;3.35;;;17.30;99.90;;;;;;5091105;28;20028;-69
2021/11/12 21:51:44;;;;;;;6.38;3.22;;;17.30;99.90;;;;;;5072333;28;20504;-70
2021/11/12 21:54:10;;;;;;;5.38;3.03;;;17.30;99.90;;;;;;5077668;28;20038;-72
2021/11/12 21:56:36;;;;;;;4.95;3.10;;;17.30;99.90;;;;;;5091221;28;20032;-72
2021/11/12 21:59:03;;;;;;;5.35;3.17;;;17.30;99.90;;;;;;5091620;28;20051;-71
2021/11/12 22:01:30;;;;;;;5.30;3.22;;;17.30;99.90;;;;;;5092441;28;20395;-71
2021/11/12 22:03:56;;;;;;;4.70;3.38;;;17.30;99.90;;;;;;5091749;28;20388;-72
2021/11/12 22:06:22;;;;;;;4.32;2.85;;;17.30;99.90;;;;;;5092939;28;20111;-73
2021/11/12 22:08:48;;;;;;;4.13;2.88;;;17.30;99.90;;;;;;5092754;28;20142;-73
2021/11/12 22:11:15;;;;;;;6.20;3.30;;;17.30;99.90;;;;;;5092228;28;20073;-71
2021/11/12 22:13:41;;;;;;;4.93;2.90;;;17.30;99.90;;;;;;5092414;28;20028;-72
2021/11/12 22:16:11;;;;;;;4.45;2.85;;;17.30;99.90;;;;;;5092208;28;20028;-72
2021/11/12 22:18:38;;;;;;;7.28;3.42;;;17.30;99.90;;;;;;5092391;28;20476;-72
2021/11/12 22:21:04;;;;;;;4.15;2.75;;;17.20;99.90;;;;;;5090211;28;20093;-72
2021/11/12 22:23:30;;;;;;;5.60;3.08;;;17.20;99.90;;;;;;5090132;28;20099;-73
2021/11/12 22:25:58;;;;;;;4.78;3.17;;;17.20;99.90;;;;;;5090388;28;20519;-73
2021/11/12 22:28:24;;;;;;;5.32;3.17;;;17.20;99.90;;;;;;5091133;28;20024;-69
2021/11/12 22:30:50;;;;;;;4.38;2.75;;;17.20;99.90;;;;;;5092319;28;20020;-72
2021/11/12 22:33:15;;;;;;;6.28;2.83;;;17.20;99.90;;;;;;5091604;28;20030;-72
2021/11/12 22:35:42;;;;;;;5.28;3.47;;;17.20;99.90;;;;;;5091879;28;20016;-72
2021/11/12 22:38:10;;;;;;;5.28;2.95;;;17.20;99.90;;;;;;5091526;28;20162;-71
2021/11/12 22:40:37;;;;;;;3.97;2.70;;;17.20;99.90;;;;;;5086039;28;20037;-71
2021/11/12 22:43:03;;;;;;;5.03;3.08;;;17.20;99.90;;;;;;5071513;28;20029;-68
2021/11/12 22:45:29;;;;;;;4.85;2.67;;;17.20;99.90;;;;;;5071565;28;20031;-67
2021/11/12 22:47:55;;;;;;;5.30;3.17;;;17.20;99.90;;;;;;5070286;28;20086;-67
2021/11/12 22:50:21;;;;;;;6.53;2.85;;;17.20;99.90;;;;;;5071153;28;20490;-67
2021/11/12 22:52:48;;;;;;;9.63;3.00;;;17.20;99.90;;;;;;5071654;28;20513;-68
2021/11/12 22:55:14;;;;;;;4.88;3.00;;;17.20;99.90;;;;;;5071354;28;20060;-68
2021/11/12 22:57:39;;;;;;;5.47;2.90;;;17.20;99.90;;;;;;5071418;28;20094;-68
2021/11/12 23:00:17;;;;;;;6.28;2.80;;;17.10;99.90;;;;;;5071288;28;20037;-68